Impacts TAF Board INFO
FOR SITUATIONAL AWARENESS. NOT TO BE USED FOR FLIGHT PLANNING PURPOSES.
IDs:

KDEN - Denver Intl, CO, US

Issued at 2029 UTC 18 Jan 2018
Updated at 2142 UTC 18 Jan 2018
Potential Impact None Slight Moderate High
Time2053Z 18/22Z 18/23Z 19/00Z 19/01Z 19/02Z 19/03Z 19/04Z 19/05Z 19/06Z 19/07Z 19/08Z 19/09Z 19/10Z>>
Type OBS PRVL PRVL PRVL PRVL PRVL PRVL PRVL PRVL PRVL PRVL PRVL PRVL PRVL
VIS 10 >6 >6 >6 >6 >6 >6 >6 >6 >6 >6 >6 >6 >6
CIG 220 220 220 220 220 200 200 200 200 200 200 200 200 200
Cover BKN BKN BKN BKN BKN BKN BKN BKN BKN BKN BKN BKN BKN BKN
FltCat VFR VFR VFR VFR VFR VFR VFR VFR VFR VFR VFR VFR VFR VFR
WX -- -- -- -- -- -- -- -- -- -- -- -- -- --
WDir 150 160 160 160 160 200 200 200 200 200 200 200 200 200
WSpd 4 7 7 7 7 11 11 11 11 11 11 11 11 11
WGst -- -- -- -- -- -- -- -- -- -- -- -- -- --

Raw TAF
KDEN 182029Z 1820/1924 16007KT P6SM BKN220
  FM190200 20011KT P6SM BKN200


Raw METAR
KDEN 182053Z 15004KT 10SM FEW140 BKN220 16/M14 A2998 RMK AO2 SLP121 T01611144 56030
KDEN 181953Z 20005KT 10SM BKN220 16/M16 A2999 RMK AO2 SLP135 T01561161
KDEN 181853Z 20008KT 10SM FEW150 BKN250 16/M15 A3004 RMK AO2 SLP147 T01561150

METAR Board
Radar Display
Forecast Discussion

FOR SITUATIONAL AWARENESS. NOT TO BE USED FOR FLIGHT PLANNING PURPOSES.